sensor_id;sensor_type;location;lat;lon;timestamp;pressure;altitude;pressure_sealevel;temperature;humidity
11878;BME280;5998;42.676;23.268;2023-04-01T00:01:05;93923.56;;;11.83;100.00
11878;BME280;5998;42.676;23.268;2023-04-01T00:03:32;93916.97;;;11.51;100.00
11878;BME280;5998;42.676;23.268;2023-04-01T00:06:01;93926.69;;;11.89;100.00
11878;BME280;5998;42.676;23.268;2023-04-01T00:08:29;93912.09;;;11.93;100.00
11878;BME280;5998;42.676;23.268;2023-04-01T00:10:56;93925.97;;;11.95;100.00
11878;BME280;5998;42.676;23.268;2023-04-01T00:13:24;93925.41;;;11.79;100.00
11878;BME280;5998;42.676;23.268;2023-04-01T00:15:52;93898.53;;;11.86;100.00
11878;BME280;5998;42.676;23.268;2023-04-01T00:18:18;93884.72;;;11.58;100.00
11878;BME280;5998;42.676;23.268;2023-04-01T00:20:46;93937.09;;;11.90;100.00
11878;BME280;5998;42.676;23.268;2023-04-01T00:23:15;93935.59;;;11.63;100.00
11878;BME280;5998;42.676;23.268;2023-04-01T00:25:42;93929.41;;;11.92;100.00
11878;BME280;5998;42.676;23.268;2023-04-01T00:28:09;93920.19;;;11.93;100.00
11878;BME280;5998;42.676;23.268;2023-04-01T00:30:36;93927.88;;;11.91;100.00
11878;BME280;5998;42.676;23.268;2023-04-01T00:33:02;93917.38;;;11.82;100.00
11878;BME280;5998;42.676;23.268;2023-04-01T00:35:30;93913.84;;;11.78;100.00
11878;BME280;5998;42.676;23.268;2023-04-01T00:37:57;93886.28;;;11.59;100.00
11878;BME280;5998;42.676;23.268;2023-04-01T00:40:29;93910.94;;;11.61;100.00
11878;BME280;5998;42.676;23.268;2023-04-01T00:42:56;93901.66;;;11.58;100.00
11878;BME280;5998;42.676;23.268;2023-04-01T00:45:32;93907.34;;;11.50;100.00
11878;BME280;5998;42.676;23.268;2023-04-01T00:48:02;93908.78;;;11.70;100.00
11878;BME280;5998;42.676;23.268;2023-04-01T00:50:30;93883.06;;;11.50;100.00
11878;BME280;5998;42.676;23.268;2023-04-01T00:53:00;93911.28;;;11.59;100.00
11878;BME280;5998;42.676;23.268;2023-04-01T00:55:32;93895.03;;;11.52;100.00
11878;BME280;5998;42.676;23.268;2023-04-01T00:58:02;93888.19;;;11.58;100.00
11878;BME280;5998;42.676;23.268;2023-04-01T01:00:30;93880.03;;;11.55;100.00
11878;BME280;5998;42.676;23.268;2023-04-01T01:02:57;93871.97;;;11.55;100.00
11878;BME280;5998;42.676;23.268;2023-04-01T01:05:33;93885.16;;;11.63;100.00
11878;BME280;5998;42.676;23.268;2023-04-01T01:08:12;93869.34;;;11.62;100.00
11878;BME280;5998;42.676;23.268;2023-04-01T01:10:43;93868.97;;;11.63;100.00
11878;BME280;5998;42.676;23.268;2023-04-01T01:13:16;93863.19;;;11.65;100.00
11878;BME280;5998;42.676;23.268;2023-04-01T01:15:45;93857.34;;;11.56;100.00
11878;BME280;5998;42.676;23.268;2023-04-01T01:18:19;93859.25;;;11.55;100.00
11878;BME280;5998;42.676;23.268;2023-04-01T01:21:12;93854.19;;;11.50;100.00
11878;BME280;5998;42.676;23.268;2023-04-01T01:27:02;93849.78;;;11.35;100.00
11878;BME280;5998;42.676;23.268;2023-04-01T01:32:53;93830.34;;;11.19;100.00
11878;BME280;5998;42.676;23.268;2023-04-01T01:35:26;93829.22;;;11.23;100.00
11878;BME280;5998;42.676;23.268;2023-04-01T01:37:59;93836.50;;;11.19;100.00
11878;BME280;5998;42.676;23.268;2023-04-01T01:40:28;93829.28;;;11.27;100.00
11878;BME280;5998;42.676;23.268;2023-04-01T01:42:59;93840.84;;;11.27;100.00
11878;BME280;5998;42.676;23.268;2023-04-01T01:45:27;93836.50;;;11.19;100.00
11878;BME280;5998;42.676;23.268;2023-04-01T01:47:55;93831.94;;;11.23;100.00
11878;BME280;5998;42.676;23.268;2023-04-01T01:50:25;93832.72;;;11.24;100.00
11878;BME280;5998;42.676;23.268;2023-04-01T01:53:00;93830.50;;;11.33;100.00
11878;BME280;5998;42.676;23.268;2023-04-01T01:55:29;93830.06;;;11.27;100.00
11878;BME280;5998;42.676;23.268;2023-04-01T01:57:59;93800.53;;;11.05;100.00
11878;BME280;5998;42.676;23.268;2023-04-01T02:00:28;93823.56;;;11.32;100.00
11878;BME280;5998;42.676;23.268;2023-04-01T02:02:56;93815.59;;;11.43;100.00
11878;BME280;5998;42.676;23.268;2023-04-01T02:05:27;93814.34;;;11.33;100.00
11878;BME280;5998;42.676;23.268;2023-04-01T02:08:01;93803.72;;;11.47;100.00
11878;BME280;5998;42.676;23.268;2023-04-01T02:10:31;93813.72;;;11.47;100.00
11878;BME280;5998;42.676;23.268;2023-04-01T02:13:03;93779.81;;;11.09;100.00
11878;BME280;5998;42.676;23.268;2023-04-01T02:15:37;93800.25;;;11.13;100.00
11878;BME280;5998;42.676;23.268;2023-04-01T02:18:07;93806.25;;;11.00;100.00
11878;BME280;5998;42.676;23.268;2023-04-01T02:20:36;93780.69;;;10.87;100.00
11878;BME280;5998;42.676;23.268;2023-04-01T02:23:05;93812.47;;;11.04;100.00
11878;BME280;5998;42.676;23.268;2023-04-01T02:25:35;93799.41;;;11.06;100.00
11878;BME280;5998;42.676;23.268;2023-04-01T02:28:04;93805.56;;;11.06;100.00
11878;BME280;5998;42.676;23.268;2023-04-01T02:30:34;93795.88;;;11.02;100.00
11878;BME280;5998;42.676;23.268;2023-04-01T02:33:03;93815.75;;;11.23;100.00
11878;BME280;5998;42.676;23.268;2023-04-01T02:35:30;93806.22;;;11.30;100.00
11878;BME280;5998;42.676;23.268;2023-04-01T02:38:00;93795.69;;;11.17;100.00
11878;BME280;5998;42.676;23.268;2023-04-01T02:40:27;93806.16;;;11.22;100.00
11878;BME280;5998;42.676;23.268;2023-04-01T02:42:54;93816.91;;;11.22;100.00
11878;BME280;5998;42.676;23.268;2023-04-01T02:45:21;93809.63;;;11.26;100.00
11878;BME280;5998;42.676;23.268;2023-04-01T02:47:47;93806.19;;;11.26;100.00
11878;BME280;5998;42.676;23.268;2023-04-01T02:50:14;93809.28;;;11.28;100.00
11878;BME280;5998;42.676;23.268;2023-04-01T02:52:41;93826.53;;;11.23;100.00
11878;BME280;5998;42.676;23.268;2023-04-01T02:55:09;93833.13;;;11.26;100.00
11878;BME280;5998;42.676;23.268;2023-04-01T02:57:36;93835.06;;;11.25;100.00
11878;BME280;5998;42.676;23.268;2023-04-01T03:00:04;93834.50;;;11.46;100.00
11878;BME280;5998;42.676;23.268;2023-04-01T03:02:36;93844.19;;;11.51;100.00
11878;BME280;5998;42.676;23.268;2023-04-01T03:05:04;93830.00;;;11.57;100.00
11878;BME280;5998;42.676;23.268;2023-04-01T03:07:31;93841.75;;;11.72;100.00
11878;BME280;5998;42.676;23.268;2023-04-01T03:09:58;93840.28;;;11.81;100.00
11878;BME280;5998;42.676;23.268;2023-04-01T03:12:26;93847.19;;;11.75;100.00
11878;BME280;5998;42.676;23.268;2023-04-01T03:14:52;93830.78;;;11.58;100.00
11878;BME280;5998;42.676;23.268;2023-04-01T03:17:19;93838.38;;;11.45;100.00
11878;BME280;5998;42.676;23.268;2023-04-01T03:19:46;93830.75;;;11.54;100.00
11878;BME280;5998;42.676;23.268;2023-04-01T03:22:13;93845.25;;;11.43;100.00
11878;BME280;5998;42.676;23.268;2023-04-01T03:24:40;93865.53;;;11.33;100.00
11878;BME280;5998;42.676;23.268;2023-04-01T03:27:07;93855.44;;;11.26;100.00
11878;BME280;5998;42.676;23.268;2023-04-01T03:29:35;93853.59;;;11.31;100.00
11878;BME280;5998;42.676;23.268;2023-04-01T03:32:01;93841.41;;;11.44;100.00
11878;BME280;5998;42.676;23.268;2023-04-01T03:34:28;93812.13;;;11.42;100.00
11878;BME280;5998;42.676;23.268;2023-04-01T03:36:55;93825.41;;;11.58;100.00
11878;BME280;5998;42.676;23.268;2023-04-01T03:39:21;93828.47;;;11.56;100.00
11878;BME280;5998;42.676;23.268;2023-04-01T03:41:48;93810.34;;;11.53;100.00
11878;BME280;5998;42.676;23.268;2023-04-01T03:44:15;93795.69;;;11.54;100.00
11878;BME280;5998;42.676;23.268;2023-04-01T03:46:43;93785.63;;;11.48;100.00
11878;BME280;5998;42.676;23.268;2023-04-01T03:49:10;93777.78;;;11.36;100.00
11878;BME280;5998;42.676;23.268;2023-04-01T03:51:37;93766.16;;;11.28;100.00
11878;BME280;5998;42.676;23.268;2023-04-01T03:54:04;93765.00;;;11.29;100.00
11878;BME280;5998;42.676;23.268;2023-04-01T03:56:31;93752.09;;;11.08;100.00
11878;BME280;5998;42.676;23.268;2023-04-01T03:59:01;93750.97;;;11.13;100.00
11878;BME280;5998;42.676;23.268;2023-04-01T04:01:28;93745.75;;;11.27;100.00
11878;BME280;5998;42.676;23.268;2023-04-01T04:03:56;93733.75;;;11.21;100.00
11878;BME280;5998;42.676;23.268;2023-04-01T04:06:24;93736.72;;;11.09;100.00
11878;BME280;5998;42.676;23.268;2023-04-01T04:08:50;93732.47;;;11.08;100.00
11878;BME280;5998;42.676;23.268;2023-04-01T04:11:18;93734.88;;;11.16;100.00
11878;BME280;5998;42.676;23.268;2023-04-01T04:13:45;93730.31;;;11.20;100.00
11878;BME280;5998;42.676;23.268;2023-04-01T04:16:14;93691.50;;;10.92;100.00
11878;BME280;5998;42.676;23.268;2023-04-01T04:18:40;93713.81;;;10.92;100.00
11878;BME280;5998;42.676;23.268;2023-04-01T04:21:11;93718.66;;;10.80;100.00
11878;BME280;5998;42.676;23.268;2023-04-01T04:23:38;93720.66;;;10.86;100.00
11878;BME280;5998;42.676;23.268;2023-04-01T04:26:07;93705.19;;;10.80;100.00
11878;BME280;5998;42.676;23.268;2023-04-01T04:28:34;93706.81;;;10.88;100.00
11878;BME280;5998;42.676;23.268;2023-04-01T04:31:01;93716.13;;;10.94;100.00
11878;BME280;5998;42.676;23.268;2023-04-01T04:33:30;93691.72;;;10.80;100.00
11878;BME280;5998;42.676;23.268;2023-04-01T04:35:57;93711.94;;;10.96;100.00
11878;BME280;5998;42.676;23.268;2023-04-01T04:38:26;93705.91;;;11.06;100.00
11878;BME280;5998;42.676;23.268;2023-04-01T04:40:53;93709.16;;;10.89;100.00
11878;BME280;5998;42.676;23.268;2023-04-01T04:43:20;93693.13;;;11.00;100.00
11878;BME280;5998;42.676;23.268;2023-04-01T04:45:47;93679.38;;;11.08;100.00
11878;BME280;5998;42.676;23.268;2023-04-01T04:48:15;93680.88;;;11.06;100.00
11878;BME280;5998;42.676;23.268;2023-04-01T04:50:44;93690.53;;;11.10;100.00
11878;BME280;5998;42.676;23.268;2023-04-01T04:53:11;93674.47;;;11.17;100.00
11878;BME280;5998;42.676;23.268;2023-04-01T04:55:43;93641.50;;;10.94;100.00
11878;BME280;5998;42.676;23.268;2023-04-01T04:58:09;93685.66;;;11.23;100.00
11878;BME280;5998;42.676;23.268;2023-04-01T05:00:36;93667.59;;;11.27;100.00
11878;BME280;5998;42.676;23.268;2023-04-01T05:03:03;93664.13;;;11.23;100.00
11878;BME280;5998;42.676;23.268;2023-04-01T05:05:29;93666.06;;;11.26;100.00
11878;BME280;5998;42.676;23.268;2023-04-01T05:07:56;93673.03;;;11.31;100.00
11878;BME280;5998;42.676;23.268;2023-04-01T05:10:23;93656.38;;;11.21;100.00
11878;BME280;5998;42.676;23.268;2023-04-01T05:12:51;93649.13;;;11.25;100.00
11878;BME280;5998;42.676;23.268;2023-04-01T05:15:18;93650.66;;;11.26;100.00
11878;BME280;5998;42.676;23.268;2023-04-01T05:17:44;93629.75;;;11.13;100.00
11878;BME280;5998;42.676;23.268;2023-04-01T05:20:12;93640.53;;;11.13;100.00
11878;BME280;5998;42.676;23.268;2023-04-01T05:22:40;93607.53;;;10.79;100.00
11878;BME280;5998;42.676;23.268;2023-04-01T05:25:07;93644.53;;;10.89;100.00
11878;BME280;5998;42.676;23.268;2023-04-01T05:27:34;93623.63;;;11.16;100.00
11878;BME280;5998;42.676;23.268;2023-04-01T05:30:03;93632.19;;;11.25;100.00
11878;BME280;5998;42.676;23.268;2023-04-01T05:32:30;93634.19;;;11.35;100.00
11878;BME280;5998;42.676;23.268;2023-04-01T05:34:57;93631.22;;;11.47;100.00
11878;BME280;5998;42.676;23.268;2023-04-01T05:37:26;93627.47;;;11.62;100.00
11878;BME280;5998;42.676;23.268;2023-04-01T05:39:52;93609.50;;;11.77;100.00
11878;BME280;5998;42.676;23.268;2023-04-01T05:42:19;93615.47;;;12.14;100.00
11878;BME280;5998;42.676;23.268;2023-04-01T05:44:46;93621.41;;;12.44;100.00
11878;BME280;5998;42.676;23.268;2023-04-01T05:47:14;93635.41;;;12.71;100.00
11878;BME280;5998;42.676;23.268;2023-04-01T05:49:40;93617.72;;;12.98;100.00
11878;BME280;5998;42.676;23.268;2023-04-01T05:52:07;93606.50;;;12.96;100.00
11878;BME280;5998;42.676;23.268;2023-04-01T05:54:36;93601.16;;;13.25;100.00
11878;BME280;5998;42.676;23.268;2023-04-01T05:57:02;93599.59;;;12.99;100.00
11878;BME280;5998;42.676;23.268;2023-04-01T05:59:29;93607.38;;;13.53;100.00
11878;BME280;5998;42.676;23.268;2023-04-01T06:01:57;93608.13;;;13.79;100.00
11878;BME280;5998;42.676;23.268;2023-04-01T06:04:28;93584.69;;;14.62;100.00
11878;BME280;5998;42.676;23.268;2023-04-01T06:06:59;93600.25;;;14.41;100.00
11878;BME280;5998;42.676;23.268;2023-04-01T06:09:27;93597.50;;;14.58;100.00
11878;BME280;5998;42.676;23.268;2023-04-01T06:12:09;93594.78;;;14.58;100.00
11878;BME280;5998;42.676;23.268;2023-04-01T06:14:48;93593.63;;;14.52;100.00
11878;BME280;5998;42.676;23.268;2023-04-01T06:17:26;93599.53;;;14.19;100.00
11878;BME280;5998;42.676;23.268;2023-04-01T06:20:03;93600.28;;;14.23;100.00
11878;BME280;5998;42.676;23.268;2023-04-01T06:25:50;93612.75;;;13.92;100.00
11878;BME280;5998;42.676;23.268;2023-04-01T06:28:51;93598.00;;;14.11;100.00
11878;BME280;5998;42.676;23.268;2023-04-01T06:31:31;93587.19;;;14.04;100.00
11878;BME280;5998;42.676;23.268;2023-04-01T06:34:13;93596.00;;;14.26;100.00
11878;BME280;5998;42.676;23.268;2023-04-01T06:36:57;93587.53;;;14.20;100.00
11878;BME280;5998;42.676;23.268;2023-04-01T06:39:48;93569.84;;;14.88;100.00
11878;BME280;5998;42.676;23.268;2023-04-01T06:42:35;93570.34;;;14.65;100.00
11878;BME280;5998;42.676;23.268;2023-04-01T06:45:12;93549.31;;;14.00;98.85
11878;BME280;5998;42.676;23.268;2023-04-01T06:47:52;93569.50;;;13.64;100.00
11878;BME280;5998;42.676;23.268;2023-04-01T06:50:26;93567.16;;;13.70;100.00
11878;BME280;5998;42.676;23.268;2023-04-01T06:53:01;93561.34;;;13.78;100.00
11878;BME280;5998;42.676;23.268;2023-04-01T06:55:35;93554.75;;;13.90;100.00
11878;BME280;5998;42.676;23.268;2023-04-01T06:58:05;93520.44;;;13.44;100.00
11878;BME280;5998;42.676;23.268;2023-04-01T07:00:38;93500.00;;;13.19;100.00
11878;BME280;5998;42.676;23.268;2023-04-01T07:03:16;93549.81;;;13.32;100.00
11878;BME280;5998;42.676;23.268;2023-04-01T07:05:45;93571.03;;;13.19;100.00
11878;BME280;5998;42.676;23.268;2023-04-01T07:08:15;93554.78;;;12.87;100.00
11878;BME280;5998;42.676;23.268;2023-04-01T07:10:47;93547.81;;;12.72;100.00
11878;BME280;5998;42.676;23.268;2023-04-01T07:13:20;93562.50;;;13.03;100.00
11878;BME280;5998;42.676;23.268;2023-04-01T07:15:56;93526.59;;;13.02;100.00
11878;BME280;5998;42.676;23.268;2023-04-01T07:18:30;93548.59;;;12.94;100.00
11878;BME280;5998;42.676;23.268;2023-04-01T07:20:59;93553.63;;;12.92;100.00
11878;BME280;5998;42.676;23.268;2023-04-01T07:23:31;93566.38;;;12.95;100.00
11878;BME280;5998;42.676;23.268;2023-04-01T07:26:00;93586.88;;;13.24;100.00
11878;BME280;5998;42.676;23.268;2023-04-01T07:28:32;93563.72;;;13.37;100.00
11878;BME280;5998;42.676;23.268;2023-04-01T07:31:08;93548.25;;;13.45;100.00
11878;BME280;5998;42.676;23.268;2023-04-01T07:33:41;93581.44;;;13.77;100.00
11878;BME280;5998;42.676;23.268;2023-04-01T07:36:16;93570.94;;;14.14;100.00
11878;BME280;5998;42.676;23.268;2023-04-01T07:38:55;93528.16;;;13.49;100.00
11878;BME280;5998;42.676;23.268;2023-04-01T07:41:29;93571.81;;;13.62;100.00
11878;BME280;5998;42.676;23.268;2023-04-01T07:44:07;93570.25;;;13.79;100.00
11878;BME280;5998;42.676;23.268;2023-04-01T07:46:57;93543.56;;;13.77;100.00
11878;BME280;5998;42.676;23.268;2023-04-01T07:49:31;93555.19;;;13.64;100.00
11878;BME280;5998;42.676;23.268;2023-04-01T07:52:06;93550.50;;;13.82;100.00
11878;BME280;5998;42.676;23.268;2023-04-01T07:54:43;93555.47;;;14.01;100.00
11878;BME280;5998;42.676;23.268;2023-04-01T07:57:19;93548.84;;;14.23;100.00
11878;BME280;5998;42.676;23.268;2023-04-01T07:59:56;93541.47;;;14.34;100.00
11878;BME280;5998;42.676;23.268;2023-04-01T08:02:34;93526.78;;;14.28;100.00
11878;BME280;5998;42.676;23.268;2023-04-01T08:05:14;93538.75;;;14.38;100.00
11878;BME280;5998;42.676;23.268;2023-04-01T08:07:48;93522.03;;;14.57;100.00
11878;BME280;5998;42.676;23.268;2023-04-01T08:10:23;93524.84;;;14.39;100.00
11878;BME280;5998;42.676;23.268;2023-04-01T08:13:02;93516.94;;;14.66;100.00
11878;BME280;5998;42.676;23.268;2023-04-01T08:15:38;93513.47;;;14.65;100.00
11878;BME280;5998;42.676;23.268;2023-04-01T08:18:17;93514.06;;;14.91;100.00
11878;BME280;5998;42.676;23.268;2023-04-01T08:20:48;93495.19;;;15.69;100.00
11878;BME280;5998;42.676;23.268;2023-04-01T08:23:19;93493.81;;;15.54;99.54
11878;BME280;5998;42.676;23.268;2023-04-01T08:25:52;93484.88;;;15.57;100.00
11878;BME280;5998;42.676;23.268;2023-04-01T08:28:24;93480.78;;;15.34;99.63
11878;BME280;5998;42.676;23.268;2023-04-01T08:30:54;93474.16;;;15.39;100.00
11878;BME280;5998;42.676;23.268;2023-04-01T08:33:24;93467.59;;;16.41;100.00
11878;BME280;5998;42.676;23.268;2023-04-01T08:35:56;93443.97;;;16.65;98.98
11878;BME280;5998;42.676;23.268;2023-04-01T08:38:30;93439.66;;;16.41;95.85
11878;BME280;5998;42.676;23.268;2023-04-01T08:41:01;93426.75;;;16.18;96.60
11878;BME280;5998;42.676;23.268;2023-04-01T08:43:55;93441.84;;;15.92;93.63
11878;BME280;5998;42.676;23.268;2023-04-01T08:47:03;93415.53;;;15.86;95.95
11878;BME280;5998;42.676;23.268;2023-04-01T08:50:01;93414.13;;;16.35;93.98
11878;BME280;5998;42.676;23.268;2023-04-01T08:52:35;93417.78;;;16.21;93.70
11878;BME280;5998;42.676;23.268;2023-04-01T08:55:28;93424.56;;;16.90;92.84
11878;BME280;5998;42.676;23.268;2023-04-01T08:58:14;93433.09;;;17.15;85.13
11878;BME280;5998;42.676;23.268;2023-04-01T09:00:46;93431.50;;;17.41;93.11
11878;BME280;5998;42.676;23.268;2023-04-01T09:03:51;93418.22;;;16.73;82.17
11878;BME280;5998;42.676;23.268;2023-04-01T09:06:29;93420.59;;;16.71;84.24
11878;BME280;5998;42.676;23.268;2023-04-01T09:09:12;93413.31;;;16.91;86.41
11878;BME280;5998;42.676;23.268;2023-04-01T09:12:07;93417.25;;;16.87;83.80
11878;BME280;5998;42.676;23.268;2023-04-01T09:15:05;93415.06;;;17.25;91.65
11878;BME280;5998;42.676;23.268;2023-04-01T09:20:47;93417.41;;;17.46;79.09
11878;BME280;5998;42.676;23.268;2023-04-01T09:23:38;93402.88;;;17.33;76.55
11878;BME280;5998;42.676;23.268;2023-04-01T09:26:35;93377.63;;;17.09;76.51
11878;BME280;5998;42.676;23.268;2023-04-01T09:29:16;93390.94;;;17.27;79.31
11878;BME280;5998;42.676;23.268;2023-04-01T09:34:52;93381.53;;;17.74;72.43
11878;BME280;5998;42.676;23.268;2023-04-01T09:37:21;93376.41;;;17.76;64.06
11878;BME280;5998;42.676;23.268;2023-04-01T09:40:17;93372.47;;;18.16;64.57
11878;BME280;5998;42.676;23.268;2023-04-01T09:42:53;93351.94;;;18.12;59.51
11878;BME280;5998;42.676;23.268;2023-04-01T09:45:41;93348.91;;;18.62;62.51
11878;BME280;5998;42.676;23.268;2023-04-01T09:48:27;93330.41;;;19.30;56.70
11878;BME280;5998;42.676;23.268;2023-04-01T09:51:04;93343.94;;;19.91;56.28
11878;BME280;5998;42.676;23.268;2023-04-01T09:53:44;93319.38;;;20.04;54.13
11878;BME280;5998;42.676;23.268;2023-04-01T10:00:08;93315.44;;;20.18;52.39
11878;BME280;5998;42.676;23.268;2023-04-01T10:06:14;93305.31;;;20.43;53.82
11878;BME280;5998;42.676;23.268;2023-04-01T10:12:17;93306.41;;;20.46;49.51
11878;BME280;5998;42.676;23.268;2023-04-01T10:24:05;93295.34;;;20.49;54.52
11878;BME280;5998;42.676;23.268;2023-04-01T10:27:21;93299.41;;;20.45;52.66
11878;BME280;5998;42.676;23.268;2023-04-01T10:33:25;93302.09;;;19.94;50.38
11878;BME280;5998;42.676;23.268;2023-04-01T10:36:16;93285.16;;;19.99;55.25
11878;BME280;5998;42.676;23.268;2023-04-01T10:51:51;93261.78;;;19.16;61.07
11878;BME280;5998;42.676;23.268;2023-04-01T10:54:43;93259.09;;;19.28;54.89
11878;BME280;5998;42.676;23.268;2023-04-01T10:57:23;93246.72;;;19.11;54.41
11878;BME280;5998;42.676;23.268;2023-04-01T11:00:15;93234.03;;;18.76;58.13
11878;BME280;5998;42.676;23.268;2023-04-01T11:03:21;93243.41;;;19.04;55.55
11878;BME280;5998;42.676;23.268;2023-04-01T11:15:32;93228.16;;;19.48;55.73
11878;BME280;5998;42.676;23.268;2023-04-01T11:18:49;93241.00;;;19.34;50.20
11878;BME280;5998;42.676;23.268;2023-04-01T11:21:50;93246.38;;;19.09;52.06
11878;BME280;5998;42.676;23.268;2023-04-01T11:24:38;93242.13;;;18.63;55.05
11878;BME280;5998;42.676;23.268;2023-04-01T11:27:20;93302.88;;;18.80;57.08
11878;BME280;5998;42.676;23.268;2023-04-01T11:30:01;93303.38;;;18.43;59.94
11878;BME280;5998;42.676;23.268;2023-04-01T11:32:49;93328.81;;;17.84;66.66
11878;BME280;5998;42.676;23.268;2023-04-01T11:35:55;93335.34;;;17.47;77.91
11878;BME280;5998;42.676;23.268;2023-04-01T11:38:41;93379.56;;;17.32;81.72
11878;BME280;5998;42.676;23.268;2023-04-01T11:41:20;93392.19;;;16.99;95.85
11878;BME280;5998;42.676;23.268;2023-04-01T11:44:03;93433.59;;;16.00;100.00
11878;BME280;5998;42.676;23.268;2023-04-01T11:46:41;93469.44;;;15.50;100.00
11878;BME280;5998;42.676;23.268;2023-04-01T11:49:24;93500.78;;;14.48;100.00
11878;BME280;5998;42.676;23.268;2023-04-01T11:52:13;93524.59;;;13.91;100.00
11878;BME280;5998;42.676;23.268;2023-04-01T11:55:02;93540.94;;;13.35;100.00
11878;BME280;5998;42.676;23.268;2023-04-01T11:57:56;93531.25;;;12.95;100.00
11878;BME280;5998;42.676;23.268;2023-04-01T12:00:46;93549.00;;;12.85;100.00
11878;BME280;5998;42.676;23.268;2023-04-01T12:03:43;93537.34;;;12.53;100.00
11878;BME280;5998;42.676;23.268;2023-04-01T12:06:19;93532.72;;;12.43;100.00
11878;BME280;5998;42.676;23.268;2023-04-01T12:08:54;93542.66;;;12.21;100.00
11878;BME280;5998;42.676;23.268;2023-04-01T12:11:30;93544.53;;;12.07;100.00
11878;BME280;5998;42.676;23.268;2023-04-01T12:14:07;93532.28;;;12.30;100.00
11878;BME280;5998;42.676;23.268;2023-04-01T12:16:54;93533.91;;;12.67;100.00
11878;BME280;5998;42.676;23.268;2023-04-01T12:19:32;93531.63;;;12.97;100.00
11878;BME280;5998;42.676;23.268;2023-04-01T12:22:26;93536.31;;;13.28;100.00
11878;BME280;5998;42.676;23.268;2023-04-01T12:25:03;93526.22;;;13.60;100.00
11878;BME280;5998;42.676;23.268;2023-04-01T12:27:59;93524.72;;;13.31;100.00
11878;BME280;5998;42.676;23.268;2023-04-01T12:30:44;93539.41;;;13.23;100.00
11878;BME280;5998;42.676;23.268;2023-04-01T12:36:30;93544.78;;;13.09;100.00
11878;BME280;5998;42.676;23.268;2023-04-01T12:39:17;93547.06;;;13.00;100.00
11878;BME280;5998;42.676;23.268;2023-04-01T12:41:52;93531.59;;;12.72;100.00
11878;BME280;5998;42.676;23.268;2023-04-01T12:44:53;93522.00;;;12.96;100.00
11878;BME280;5998;42.676;23.268;2023-04-01T12:50:38;93516.19;;;12.83;100.00
11878;BME280;5998;42.676;23.268;2023-04-01T12:53:25;93516.97;;;12.87;100.00
11878;BME280;5998;42.676;23.268;2023-04-01T12:56:03;93498.44;;;12.86;100.00
11878;BME280;5998;42.676;23.268;2023-04-01T12:58:51;93491.88;;;12.83;100.00
11878;BME280;5998;42.676;23.268;2023-04-01T13:01:45;93495.75;;;12.82;100.00
11878;BME280;5998;42.676;23.268;2023-04-01T13:04:35;93491.50;;;12.85;100.00
11878;BME280;5998;42.676;23.268;2023-04-01T13:07:22;93487.63;;;12.86;100.00
11878;BME280;5998;42.676;23.268;2023-04-01T13:10:02;93443.25;;;12.62;100.00
11878;BME280;5998;42.676;23.268;2023-04-01T13:12:57;93430.53;;;12.73;100.00
11878;BME280;5998;42.676;23.268;2023-04-01T13:15:32;93431.66;;;12.97;100.00
11878;BME280;5998;42.676;23.268;2023-04-01T13:18:11;93439.75;;;13.22;100.00
11878;BME280;5998;42.676;23.268;2023-04-01T13:20:48;93428.56;;;13.23;100.00
11878;BME280;5998;42.676;23.268;2023-04-01T13:23:30;93420.41;;;13.41;100.00
11878;BME280;5998;42.676;23.268;2023-04-01T13:26:06;93421.97;;;13.42;100.00
11878;BME280;5998;42.676;23.268;2023-04-01T13:28:39;93424.59;;;13.63;100.00
11878;BME280;5998;42.676;23.268;2023-04-01T13:31:24;93412.16;;;13.80;100.00
11878;BME280;5998;42.676;23.268;2023-04-01T13:34:00;93398.88;;;14.10;100.00
11878;BME280;5998;42.676;23.268;2023-04-01T13:36:38;93392.78;;;14.54;100.00
11878;BME280;5998;42.676;23.268;2023-04-01T13:39:18;93373.34;;;14.69;100.00
11878;BME280;5998;42.676;23.268;2023-04-01T13:42:00;93372.94;;;14.71;100.00
11878;BME280;5998;42.676;23.268;2023-04-01T13:44:36;93360.41;;;14.88;100.00
11878;BME280;5998;42.676;23.268;2023-04-01T13:47:23;93349.34;;;15.09;100.00
11878;BME280;5998;42.676;23.268;2023-04-01T13:50:19;93349.16;;;15.26;100.00
11878;BME280;5998;42.676;23.268;2023-04-01T13:55:55;93336.78;;;15.89;100.00
11878;BME280;5998;42.676;23.268;2023-04-01T13:58:48;93346.53;;;15.87;100.00
11878;BME280;5998;42.676;23.268;2023-04-01T14:01:23;93342.72;;;16.08;100.00
11878;BME280;5998;42.676;23.268;2023-04-01T14:06:57;93324.59;;;16.28;100.00
11878;BME280;5998;42.676;23.268;2023-04-01T14:09:41;93307.34;;;16.15;100.00
11878;BME280;5998;42.676;23.268;2023-04-01T14:12:17;93331.03;;;16.37;100.00
11878;BME280;5998;42.676;23.268;2023-04-01T14:15:02;93321.16;;;16.24;100.00
11878;BME280;5998;42.676;23.268;2023-04-01T14:17:46;93326.13;;;16.29;100.00
11878;BME280;5998;42.676;23.268;2023-04-01T14:20:27;93319.78;;;16.62;100.00
11878;BME280;5998;42.676;23.268;2023-04-01T14:23:13;93310.22;;;16.77;100.00
11878;BME280;5998;42.676;23.268;2023-04-01T14:28:51;93286.84;;;16.10;100.00
11878;BME280;5998;42.676;23.268;2023-04-01T14:31:34;93289.34;;;16.24;100.00
11878;BME280;5998;42.676;23.268;2023-04-01T14:34:15;93286.63;;;16.24;100.00
11878;BME280;5998;42.676;23.268;2023-04-01T14:36:53;93258.91;;;16.10;99.80
11878;BME280;5998;42.676;23.268;2023-04-01T14:39:38;93281.75;;;16.39;99.70
11878;BME280;5998;42.676;23.268;2023-04-01T14:42:21;93265.09;;;16.60;100.00
11878;BME280;5998;42.676;23.268;2023-04-01T14:45:02;93277.72;;;16.70;99.48
11878;BME280;5998;42.676;23.268;2023-04-01T14:47:47;93274.78;;;16.61;96.13
11878;BME280;5998;42.676;23.268;2023-04-01T14:50:18;93279.81;;;16.63;92.29
11878;BME280;5998;42.676;23.268;2023-04-01T14:52:56;93277.38;;;16.68;93.48